Wilfred M Cohen — VCNK — position and weather

sailwx.info

Track history (hours):
 
Tides and Currents Weather Stations Pressure Air Temp Water Temp Dewpoint Dewpoint Depression Visibility Wind Speed Wind Dir Waves Ship Positions

Wilfred M Cohen

Last reported at 2017-Nov-18 08:05 UTC. Time now 2017-Nov-19 10:19 UTC.
Position N 45°43' W 085°11'.

MMSI: 314955479.

Date/timePositionNaut miles runAvg speedWind from/ knotsBaromVisibWave heightAir tempDewpointWater temp
2017-Nov-18 08:05N 45°43' W 085°11'1 8.5
2017-Nov-18 08:00N 45°42' W 085°12'4 8.8
2017-Nov-18 07:30N 45°39' W 085°16'4 8.7
2017-Nov-18 07:00N 45°35' W 085°20'4 8.6
2017-Nov-18 06:31N 45°32' W 085°24'4 8.6
2017-Nov-18 06:00N 45°28' W 085°27'4 8.7
2017-Nov-18 05:30N 45°25' W 085°31'4 8.7
2017-Nov-18 05:00N 45°21' W 085°35'4 8.7
2017-Nov-18 04:30N 45°18' W 085°38'  
2017-Nov-08 11:32N 45°53' W 085°19'1 5.6
2017-Nov-08 11:25N 45°53' W 085°18'2 5.5
2017-Nov-08 11:01N 45°53' W 085°15'3 5.4
2017-Nov-08 10:31N 45°52' W 085°11'3 5.4
2017-Nov-08 10:00N 45°52' W 085°07'3 5.3
2017-Nov-08 09:31N 45°51' W 085°04'3 5.1
2017-Nov-08 09:01N 45°51' W 084°60'2 4.8
2017-Nov-08 08:30N 45°51' W 084°57'  
Track history (hours):
 
Tides and Currents Weather Stations Pressure Air Temp Water Temp Dewpoint Dewpoint Depression Visibility Wind Speed Wind Dir Waves Ship Positions

Wilfred M Cohen

Last reported at 2017-Nov-18 08:05 UTC. Time now 2017-Nov-19 10:19 UTC.
Position N 45°43' W 085°11'.

MMSI: 314955479.

Date/timePositionNaut miles runAvg speedWind from/ knotsBaromVisibWave heightAir tempDewpointWater temp
2017-Nov-18 08:05N 45°43' W 085°11'1 8.5
2017-Nov-18 08:00N 45°42' W 085°12'4 8.8
2017-Nov-18 07:30N 45°39' W 085°16'4 8.7
2017-Nov-18 07:00N 45°35' W 085°20'4 8.6
2017-Nov-18 06:31N 45°32' W 085°24'4 8.6
2017-Nov-18 06:00N 45°28' W 085°27'4 8.7
2017-Nov-18 05:30N 45°25' W 085°31'4 8.7
2017-Nov-18 05:00N 45°21' W 085°35'4 8.7
2017-Nov-18 04:30N 45°18' W 085°38'  
2017-Nov-08 11:32N 45°53' W 085°19'1 5.6
2017-Nov-08 11:25N 45°53' W 085°18'2 5.5
2017-Nov-08 11:01N 45°53' W 085°15'3 5.4
2017-Nov-08 10:31N 45°52' W 085°11'3 5.4
2017-Nov-08 10:00N 45°52' W 085°07'3 5.3
2017-Nov-08 09:31N 45°51' W 085°04'3 5.1
2017-Nov-08 09:01N 45°51' W 084°60'2 4.8
2017-Nov-08 08:30N 45°51' W 084°57'  

Dump ship's entire track history